Latest Weather Observations for Truscott

IDD60801

Issued at 1:31 pm CST Thursday 11 February 2016 (issued every 30 minutes, with the page automatically refreshed every 10 minutes)

About weather observations | Map of weather stations | Latest weather observations for NT | Other Formats
Station Details ID: 001020 Name: TRUSCOTT Lat: -14.09 Lon: 126.39 Height: 51.0 m
Data from the previous 72 hours. | See also: Recent months at Truscott
Date/Time
CST
Temp
°C
App
Temp
°C
Dew
Point
Rel
Hum
%
Delta-T
°C
Wind Press
QNH
hPa
Press
MSL
hPa
Rain
since 9 am
mm
Dir
 
Spd
km/h
Gust
km/h
Spd
kts
Gust
kts
11/01:30pm 33.8 37.7 25.5 62 5.9 WNW 15 22 8 12 1005.5 1004.9 0.0
11/01:00pm 33.6 37.6 25.6 63 5.7 W 15 22 8 12 1005.9 - 0.0
11/12:30pm 33.6 37.6 25.6 63 5.7 W 15 20 8 11 1006.3 - 0.0
11/12:00pm 32.4 36.6 26.0 69 4.6 WNW 15 20 8 11 1006.7 - 0.0
11/11:30am 32.2 36.0 25.3 67 4.9 WNW 15 20 8 11 1007.1 - 0.0
11/11:00am 32.4 35.4 24.7 64 5.4 WSW 17 24 9 13 1007.2 - 0.0
11/10:30am 31.6 35.0 24.7 67 4.9 SW 15 24 8 13 1007.6 1007.0 21.0
11/10:00am 31.0 33.9 25.4 72 4.0 SW 20 26 11 14 1007.6 - 21.0
11/09:30am 30.3 34.0 25.1 73 3.7 WSW 15 28 8 15 1007.7 - 21.0
11/09:00am 29.9 34.4 25.2 76 3.3 SW 11 17 6 9 1007.9 - 21.0
11/08:30am 29.0 33.7 25.0 79 2.8 SSW 9 13 5 7 1007.5 - 21.0
11/08:00am 28.9 33.8 25.3 81 2.5 SSW 9 13 5 7 1007.3 - 21.0
11/07:30am 28.4 32.8 25.0 82 2.4 SW 11 15 6 8 1006.8 1006.2 21.0
11/07:00am 28.0 33.1 25.6 87 1.7 SW 9 13 5 7 1006.6 - 21.0
11/06:30am 27.9 32.5 25.9 89 1.4 WNW 13 17 7 9 1005.8 - 21.0
11/06:00am 27.7 32.6 25.3 87 1.7 W 9 15 5 8 1006.2 - 21.0
11/05:30am 27.7 33.0 25.3 87 1.7 SSW 7 11 4 6 1006.8 - 21.0
11/05:00am 28.2 32.7 25.2 84 2.1 S 11 15 6 8 1007.0 - 21.0
11/04:30am 29.0 33.5 25.8 83 2.3 SSW 13 19 7 10 1006.9 1006.3 21.0
11/04:00am 28.8 32.8 25.6 83 2.3 WSW 15 20 8 11 1005.9 - 21.0
11/03:30am 28.8 32.2 25.2 81 2.5 WSW 17 26 9 14 1006.1 - 21.0
11/03:00am 28.9 31.8 24.5 77 3.1 WSW 17 22 9 12 1006.2 - 21.0
11/02:30am 29.0 32.0 24.6 77 3.1 W 17 20 9 11 1006.3 - 21.0
11/02:00am 28.8 31.8 24.6 78 2.9 SW 17 24 9 13 1006.3 - 21.0
11/01:30am 28.9 31.3 24.2 76 3.3 WSW 19 28 10 15 1006.5 1005.9 21.0
11/12:00am 28.9 30.6 23.1 71 4.0 SW 19 28 10 15 1007.2 - 21.0
 
Date/Time
CST
Temp
°C
App
Temp
°C
Dew
Point
Rel
Hum
%
Delta-T
°C
Wind Press
QNH
hPa
Press
MSL
hPa
Rain
since 9 am
mm
Dir
 
Spd
km/h
Gust
km/h
Spd
kts
Gust
kts
10/11:30pm 28.7 30.6 22.7 70 4.1 SW 17 26 9 14 1007.6 - 21.0
10/11:00pm 28.2 30.2 22.9 73 3.6 SW 17 22 9 12 1007.5 - 21.0
10/10:30pm 28.2 30.2 22.2 70 4.1 SW 15 20 8 11 1007.2 1006.6 21.0
10/07:19pm 24.2 25.9 22.3 89 1.3 N 17 26 9 14 1006.7 - 21.0
10/07:14pm 24.1 26.2 22.5 91 1.1 N 15 30 8 16 1006.7 - 21.0
10/07:00pm 23.3 25.1 22.6 96 0.5 NNE 17 37 9 20 1006.7 - 20.6
10/06:37pm 24.4 23.1 21.3 83 2.0 E 30 54 16 29 1007.3 - 2.0
10/06:36pm 24.8 23.8 21.3 81 2.3 E 28 54 15 29 1007.3 - 1.2
10/06:30pm 28.0 27.8 20.6 64 4.9 ENE 22 32 12 17 1007.2 - 0.0
10/06:19pm 29.3 27.2 19.0 53 6.7 E 28 44 15 24 1006.8 - 0.0
10/06:00pm 33.6 36.0 24.2 58 6.6 W 19 28 10 15 1004.8 - 0.0
10/05:30pm 33.8 35.9 24.1 57 6.8 W 20 30 11 16 1004.3 - 0.0
10/05:00pm 33.5 34.8 24.1 58 6.6 W 24 35 13 19 1003.8 - 0.0
10/04:30pm 34.0 36.5 24.8 58 6.5 W 20 33 11 18 1004.3 1003.8 0.0
10/04:00pm 33.7 35.7 24.6 59 6.4 W 22 33 12 18 1004.7 - 0.0
10/03:30pm 33.8 36.3 24.7 59 6.4 W 20 32 11 17 1005.0 - 0.0
10/03:00pm 34.1 36.0 23.8 55 7.2 WNW 20 32 11 17 1005.4 - 0.0
10/02:30pm 34.4 36.1 23.1 51 7.8 W 19 32 10 17 1005.8 - 0.0
10/02:00pm 34.5 34.7 20.5 44 9.4 W 20 30 11 16 1006.0 - 0.0
10/01:30pm 34.6 34.8 20.2 43 9.7 WNW 19 30 10 16 1006.3 1005.7 0.0
10/01:00pm 34.2 35.5 21.6 47 8.6 WNW 17 26 9 14 1006.7 - 0.0
10/12:30pm 34.5 35.7 21.5 46 8.8 WNW 17 26 9 14 1007.0 - 0.0
10/12:00pm 34.1 35.5 21.9 49 8.3 W 17 24 9 13 1007.3 - 0.0
10/11:30am 33.6 35.5 22.1 51 7.9 W 15 22 8 12 1007.6 - 0.0
10/11:00am 32.9 35.0 21.7 51 7.6 W 13 19 7 10 1007.9 - 0.0
10/10:30am 32.5 34.8 21.4 52 7.5 W 11 17 6 9 1008.0 1007.4 0.0
10/10:00am 32.0 33.7 20.9 52 7.4 WSW 13 19 7 10 1008.1 - 0.0
10/09:30am 30.5 33.4 21.8 59 5.9 W 9 13 5 7 1008.2 - 0.0
10/09:00am 28.9 32.2 21.9 66 4.7 WSW 7 11 4 6 1008.1 - 0.0
10/08:30am 28.5 31.5 21.3 65 4.8 W 7 11 4 6 1008.1 - 0.0
10/08:00am 27.5 32.0 21.5 70 4.0 CALM 0 0 0 0 1007.8 - 0.0
10/07:30am 27.4 31.8 21.4 70 4.0 CALM 0 0 0 0 1007.3 1006.7 0.0
10/07:00am 27.3 31.7 21.3 69 4.0 CALM 0 0 0 0 1007.3 - 0.0
10/06:30am 27.3 30.8 21.1 69 4.1 ESE 4 7 2 4 1007.0 - 0.0
10/06:00am 27.4 30.5 21.0 68 4.2 ESE 6 7 3 4 1006.7 - 0.0
10/05:30am 27.6 30.4 20.9 67 4.4 ESE 7 11 4 6 1006.7 - 0.0
10/05:00am 27.7 30.1 20.8 66 4.6 SE 9 15 5 8 1006.4 - 0.0
10/04:30am 27.6 30.4 20.9 67 4.5 SE 7 11 4 6 1006.3 1005.7 0.0
10/04:00am 28.0 31.1 21.5 67 4.3 ESE 7 13 4 7 1006.1 - 0.0
10/03:30am 28.3 31.3 21.3 65 4.7 N 7 9 4 5 1006.1 - 0.0
10/03:00am 28.0 31.1 21.5 67 4.3 NW 7 9 4 5 1006.3 - 0.0
10/02:30am 28.1 30.5 20.9 65 4.8 W 9 11 5 6 1006.8 - 0.0
10/02:00am 28.0 30.2 20.3 63 5.1 SW 9 13 5 7 1007.5 - 0.0
10/01:30am 28.2 29.5 20.2 62 5.3 SSW 13 19 7 10 1007.8 1007.2 0.0
10/01:00am 28.7 30.1 20.4 60 5.5 SSW 13 17 7 9 1008.5 - 0.0
10/12:30am 29.3 29.7 20.7 59 5.7 S 19 24 10 13 1009.3 - 0.0
10/12:09am 30.7 30.1 22.0 59 5.9 S 28 43 15 23 1009.4 - 0.0
10/12:00am 30.9 34.4 24.8 70 4.3 SW 15 24 8 13 1009.4 - 0.0
 
Date/Time
CST
Temp
°C
App
Temp
°C
Dew
Point
Rel
Hum
%
Delta-T
°C
Wind Press
QNH
hPa
Press
MSL
hPa
Rain
since 9 am
mm
Dir
 
Spd
km/h
Gust
km/h
Spd
kts
Gust
kts
09/11:30pm 30.6 35.1 25.2 73 3.8 WSW 11 17 6 9 1009.5 - 0.0
09/11:00pm 30.3 34.7 25.1 73 3.7 W 11 15 6 8 1009.1 - 0.0
09/10:30pm 30.1 34.7 24.7 73 3.8 W 9 13 5 7 1008.7 1008.1 0.0
09/10:24pm 30.2 34.8 24.8 73 3.8 W 9 11 5 6 1008.6 - 0.0
09/10:13pm 30.2 34.6 24.4 71 4.1 W 9 13 5 7 1008.5 - 0.0
09/10:00pm 30.4 34.2 24.1 69 4.4 W 11 13 6 7 1008.5 - 0.0
09/09:30pm 30.8 34.2 22.7 62 5.5 WSW 9 11 5 6 1008.5 - 0.0
09/09:00pm 31.1 33.6 22.4 60 5.9 W 13 20 7 11 1008.3 - 0.0
09/08:30pm 31.1 34.8 24.5 68 4.6 W 13 20 7 11 1007.8 - 0.0
09/08:00pm 31.5 34.5 23.3 61 5.7 WNW 13 19 7 10 1007.1 - 0.0
09/07:30pm 32.0 35.1 23.5 60 5.9 W 13 20 7 11 1006.9 1006.3 0.0
09/07:00pm 32.8 36.1 23.2 57 6.6 NW 11 17 6 9 1006.5 - 0.0
09/06:30pm 33.3 36.4 24.2 59 6.4 NW 15 20 8 11 1006.1 - 0.0
09/06:00pm 33.3 35.7 23.6 56 6.8 NW 17 22 9 12 1005.8 - 0.0
09/05:30pm 34.2 37.8 25.0 58 6.5 NW 15 22 8 12 1005.7 - 0.0
09/05:00pm 34.0 37.0 24.6 58 6.6 NW 17 24 9 13 1005.9 - 0.0
09/04:30pm 34.9 38.0 24.2 53 7.5 NNW 15 24 8 13 1006.1 1005.5 0.0
09/04:00pm 33.6 36.7 24.8 60 6.2 NNW 17 24 9 13 1006.4 - 0.0
09/03:30pm 33.7 36.3 24.6 59 6.4 NNW 19 26 10 14 1006.6 - 0.0
09/03:00pm 33.7 36.7 24.6 59 6.4 NNW 17 24 9 13 1006.9 - 0.0
09/02:30pm 34.3 36.7 23.6 53 7.5 NNW 17 24 9 13 1007.0 - 0.0
09/02:00pm 34.5 36.3 21.9 48 8.6 WNW 15 24 8 13 1007.3 - 0.0
09/01:30pm 34.3 36.4 22.4 50 8.2 WNW 15 24 8 13 1007.8 1007.2 0.0
09/01:00pm 34.1 36.4 22.8 51 7.8 WNW 15 20 8 11 1008.2 - 0.0
09/12:30pm 33.9 36.2 22.7 52 7.7 WNW 15 22 8 12 1008.6 - 0.0
09/12:00pm 33.9 36.8 23.9 56 7.0 NW 15 22 8 12 1008.9 - 0.0
09/11:30am 33.4 37.0 23.7 56 6.8 NW 11 17 6 9 1009.2 - 0.0
09/11:00am 33.6 36.5 21.7 49 8.1 WSW 9 19 5 10 1009.5 - 0.0
09/10:30am 32.4 36.6 24.7 64 5.4 W 11 17 6 9 1009.7 1009.1 0.0
09/10:00am 32.3 36.6 24.3 62 5.6 WSW 9 15 5 8 1009.7 - 0.0
09/09:30am 31.3 35.9 24.7 68 4.6 WSW 9 13 5 7 1009.7 - 0.0
09/09:00am 30.2 36.2 26.4 80 2.7 WSW 7 11 4 6 1009.6 - 0.0
09/08:30am 30.1 37.9 27.1 84 2.2 CALM 0 0 0 0 1009.6 - 0.0
09/08:00am 28.7 36.4 26.9 90 1.3 CALM 0 0 0 0 1009.2 - 0.0
09/07:30am 27.1 34.7 26.8 98 0.2 CALM 0 0 0 0 1008.9 1008.3 0.0
09/07:00am 26.5 33.6 26.0 97 0.4 CALM 0 0 0 0 1008.4 - 0.0
09/06:30am 26.6 33.8 26.1 97 0.4 CALM 0 0 0 0 1008.1 - 0.0
09/06:00am 26.9 34.1 26.2 96 0.5 CALM 0 0 0 0 1007.8 - 0.0
09/05:30am 26.9 34.3 26.4 97 0.4 CALM 0 0 0 0 1007.6 - 0.0
09/05:00am 26.8 33.8 25.9 95 0.6 CALM 0 0 0 0 1007.5 - 0.0
09/04:30am 27.3 33.8 26.2 94 0.8 S 4 6 2 3 1007.4 1006.8 0.0
09/04:00am 27.9 34.1 26.3 91 1.1 SW 6 7 3 4 1007.5 - 0.0
09/03:30am 28.3 34.5 26.7 91 1.1 WSW 7 9 4 5 1007.6 - 0.0
09/03:00am 27.8 35.3 26.6 93 0.9 CALM 0 0 0 0 1007.8 - 0.0
09/02:30am 27.7 35.1 26.5 93 0.9 CALM 0 0 0 0 1008.1 - 0.0
09/02:00am 27.6 34.7 26.0 91 1.1 CALM 0 0 0 0 1008.3 - 0.0
09/01:30am 27.9 35.1 26.1 90 1.3 CALM 0 0 0 0 1008.5 1007.9 0.0
09/01:00am 28.0 35.0 25.8 88 1.6 CALM 0 0 0 0 1008.8 - 0.0
09/12:30am 28.1 35.0 25.7 87 1.7 CALM 0 0 0 0 1009.1 - 0.0
09/12:00am 28.6 35.8 26.2 87 1.7 CALM 0 0 0 0 1009.3 - 0.0
 
Date/Time
CST
Temp
°C
App
Temp
°C
Dew
Point
Rel
Hum
%
Delta-T
°C
Wind Press
QNH
hPa
Press
MSL
hPa
Rain
since 9 am
mm
Dir
 
Spd
km/h
Gust
km/h
Spd
kts
Gust
kts
08/11:30pm 28.6 35.8 26.2 87 1.7 CALM 0 0 0 0 1009.3 - 0.0
08/11:00pm 28.9 35.9 25.9 84 2.1 CALM 0 0 0 0 1009.2 - 0.0
08/10:30pm 29.0 35.0 26.0 84 2.1 NNW 6 7 3 4 1008.9 1008.3 0.0
08/10:00pm 29.2 34.8 25.4 80 2.7 NNW 6 7 3 4 1008.8 - 0.0
08/09:30pm 29.5 34.6 24.6 75 3.4 NNW 6 9 3 5 1008.4 - 0.0
08/09:00pm 29.9 34.9 24.8 74 3.6 N 7 11 4 6 1008.0 - 0.0
08/08:30pm 30.0 34.9 24.6 73 3.8 NNW 7 11 4 6 1007.6 - 0.0
08/08:00pm 30.3 34.8 24.0 69 4.4 NNW 7 9 4 5 1007.4 - 0.0
08/07:30pm 30.8 34.5 23.2 64 5.2 N 9 15 5 8 1006.8 1006.2 0.0
08/07:00pm 31.5 34.2 22.2 57 6.3 N 11 17 6 9 1006.5 - 0.0
08/06:30pm 32.2 34.7 21.7 54 7.1 NNW 11 17 6 9 1006.3 - 0.0
08/06:00pm 32.3 34.2 22.1 55 7.0 NNW 15 20 8 11 1006.2 - 0.0
08/05:30pm 32.5 34.8 23.4 58 6.3 NNW 17 22 9 12 1006.0 - 0.0
08/05:00pm 32.8 35.3 23.2 57 6.6 NNW 15 24 8 13 1005.6 - 0.0
08/04:30pm 32.8 35.0 23.2 57 6.7 NNW 17 22 9 12 1005.8 1005.2 0.0
08/04:00pm 33.1 35.9 23.7 57 6.6 NNW 15 20 8 11 1006.0 - 0.0
08/03:30pm 33.9 36.8 23.9 56 7.0 NNW 15 22 8 12 1006.2 - 0.0

Other Formats:

Comma delimited format used in spreadsheet applications
http://www.bom.gov.au/fwo/IDD60801/IDD60801.95101.axf

JavaScript Object Notation format (JSON) in row-major order
http://www.bom.gov.au/fwo/IDD60801/IDD60801.95101.json